Time;durP1;ratioP1;P1;durP2;ratioP2;P2;SDS_P1;SDS_P2;PMS_P1;PMS_P2;Temp;Humidity;BMP_temperature;BMP_pressure;BME280_temperature;BME280_humidity;BME280_pressure;Samples;Min_cycle;Max_cycle;Signal;HPM_P1;HPM_P2
2022/12/25 00:01:51;;;;;;;22.38;10.90;;;6.50;86.80;;;;;;5111866;28;20050;-71
2022/12/25 00:04:17;;;;;;;25.77;11.40;;;6.50;86.80;;;;;;5111153;28;20039;-71
2022/12/25 00:06:43;;;;;;;21.77;10.85;;;6.50;86.70;;;;;;5111717;28;20046;-72
2022/12/25 00:09:08;;;;;;;27.67;12.30;;;6.50;86.70;;;;;;5094274;28;20084;-72
2022/12/25 00:11:34;;;;;;;20.75;11.80;;;6.40;86.50;;;;;;5111137;28;20054;-73
2022/12/25 00:14:00;;;;;;;27.30;12.38;;;6.40;86.40;;;;;;5111527;28;20035;-71
2022/12/25 00:16:26;;;;;;;26.95;11.60;;;6.40;86.40;;;;;;5112875;28;20066;-71
2022/12/25 00:18:54;;;;;;;20.98;11.63;;;6.30;86.30;;;;;;5094452;28;20039;-71
2022/12/25 00:21:21;;;;;;;33.30;13.05;;;6.40;86.40;;;;;;5111748;28;20040;-71
2022/12/25 00:23:46;;;;;;;30.85;13.20;;;6.40;86.40;;;;;;5094666;28;20183;-71
2022/12/25 00:26:15;;;;;;;34.40;12.95;;;6.30;86.40;;;;;;5111565;28;20047;-71
2022/12/25 00:28:41;;;;;;;41.55;14.20;;;6.30;86.40;;;;;;5113111;28;20039;-71
2022/12/25 00:31:09;;;;;;;29.13;13.82;;;6.30;86.40;;;;;;5112371;28;20036;-71
2022/12/25 00:33:40;;;;;;;25.70;12.52;;;6.30;86.40;;;;;;5097447;28;20039;-64
2022/12/25 00:36:08;;;;;;;39.80;15.27;;;6.30;86.50;;;;;;5114696;28;20043;-64
2022/12/25 00:38:36;;;;;;;33.55;13.18;;;6.20;86.50;;;;;;5114911;28;20573;-65
2022/12/25 00:41:06;;;;;;;31.10;13.52;;;6.20;86.50;;;;;;5126344;28;20393;-64
2022/12/25 00:43:32;;;;;;;27.98;12.50;;;6.20;86.50;;;;;;5118527;28;20374;-64
2022/12/25 00:46:00;;;;;;;30.83;13.52;;;6.20;86.50;;;;;;5118427;28;20047;-65
2022/12/25 00:48:27;;;;;;;37.85;14.13;;;6.20;86.70;;;;;;5114627;28;20059;-64
2022/12/25 00:50:57;;;;;;;28.77;13.57;;;6.20;86.70;;;;;;5114825;28;20085;-65
2022/12/25 00:53:24;;;;;;;30.30;14.05;;;6.20;86.80;;;;;;5107614;28;20050;-65
2022/12/25 00:55:51;;;;;;;28.98;13.63;;;6.20;86.80;;;;;;5103343;28;20076;-65
2022/12/25 00:58:18;;;;;;;32.35;13.02;;;6.10;86.70;;;;;;5097961;28;20043;-65
2022/12/25 01:00:43;;;;;;;27.20;13.13;;;6.20;86.90;;;;;;5131864;28;20039;-65
2022/12/25 01:03:09;;;;;;;32.25;14.25;;;6.20;86.90;;;;;;5123536;27;20494;-64
2022/12/25 01:05:35;;;;;;;29.25;12.75;;;6.20;87.00;;;;;;5118014;27;20043;-65
2022/12/25 01:08:00;;;;;;;35.65;14.45;;;6.10;87.00;;;;;;5118411;27;20031;-65
2022/12/25 01:10:26;;;;;;;26.83;12.57;;;6.10;87.10;;;;;;5118134;27;20152;-65
2022/12/25 01:12:52;;;;;;;39.85;15.02;;;6.20;87.20;;;;;;5122143;27;20070;-65
2022/12/25 01:15:18;;;;;;;32.17;14.57;;;6.20;87.20;;;;;;5129014;27;20035;-65
2022/12/25 01:17:44;;;;;;;31.58;13.75;;;6.10;87.20;;;;;;5101132;27;20092;-64
2022/12/25 01:20:11;;;;;;;28.83;13.50;;;6.20;87.40;;;;;;5117646;27;20055;-65
2022/12/25 01:22:36;;;;;;;35.90;15.23;;;6.20;87.50;;;;;;5101423;27;20382;-64
2022/12/25 01:25:04;;;;;;;35.80;14.50;;;6.20;87.50;;;;;;5117586;27;20035;-64
2022/12/25 01:27:31;;;;;;;28.67;12.98;;;6.20;87.60;;;;;;5123715;27;20039;-65
2022/12/25 01:29:56;;;;;;;37.53;14.60;;;6.20;87.60;;;;;;5117892;27;20035;-64
2022/12/25 01:32:22;;;;;;;36.08;14.02;;;6.20;87.70;;;;;;5100764;27;20046;-65
2022/12/25 01:34:48;;;;;;;33.85;14.52;;;6.20;88.20;;;;;;5117390;27;20429;-64
2022/12/25 01:37:14;;;;;;;34.33;15.32;;;6.20;87.90;;;;;;5117482;27;20095;-65
2022/12/25 01:39:39;;;;;;;54.33;17.35;;;6.30;88.10;;;;;;5117059;27;20125;-71
2022/12/25 01:42:05;;;;;;;37.70;16.92;;;6.30;88.20;;;;;;5117575;27;20035;-65
2022/12/25 01:44:34;;;;;;;30.95;15.73;;;6.40;88.40;;;;;;5135970;27;20126;-65
2022/12/25 01:46:59;;;;;;;37.83;16.00;;;6.40;88.50;;;;;;5117675;27;20074;-65
2022/12/25 01:49:25;;;;;;;39.83;17.42;;;6.40;88.60;;;;;;5117892;27;20081;-65
2022/12/25 01:51:54;;;;;;;37.53;15.30;;;6.40;88.60;;;;;;5126093;27;20043;-65
2022/12/25 01:54:26;;;;;;;37.67;15.82;;;6.40;88.70;;;;;;5117444;27;20494;-64
2022/12/25 01:56:55;;;;;;;40.75;15.88;;;6.50;88.90;;;;;;5100674;27;20386;-65
2022/12/25 01:59:24;;;;;;;36.58;15.18;;;6.50;88.90;;;;;;5135834;27;20071;-71
2022/12/25 02:01:50;;;;;;;46.92;16.35;;;6.50;88.90;;;;;;5117139;27;20047;-71
2022/12/25 02:04:23;;;;;;;46.08;16.88;;;6.50;89.00;;;;;;5117030;27;20065;-65
2022/12/25 02:06:51;;;;;;;36.93;15.07;;;6.60;89.20;;;;;;5130785;27;20050;-64
2022/12/25 02:09:17;;;;;;;44.58;17.98;;;6.60;89.20;;;;;;5119775;27;20613;-65
2022/12/25 02:11:57;;;;;;;41.20;16.45;;;6.70;89.30;;;;;;5116641;27;20038;-65
2022/12/25 02:14:25;;;;;;;40.15;15.80;;;6.70;89.30;;;;;;5116765;27;20039;-65
2022/12/25 02:17:00;;;;;;;45.20;16.17;;;6.70;89.40;;;;;;5116165;27;20043;-66
2022/12/25 02:20:00;;;;;;;38.22;15.93;;;6.80;89.60;;;;;;5124487;27;20039;-65
2022/12/25 02:23:19;;;;;;;49.47;16.02;;;6.80;89.70;;;;;;5134008;27;20043;-65
2022/12/25 02:25:51;;;;;;;50.83;17.25;;;6.90;89.80;;;;;;5029784;28;20088;-64
2022/12/25 02:28:43;;;;;;;40.33;16.65;;;6.90;89.70;;;;;;5015134;28;20030;-64
2022/12/25 02:31:14;;;;;;;48.13;16.77;;;7.00;90.00;;;;;;5070579;28;21238;-64
2022/12/25 02:34:04;;;;;;;38.75;15.63;;;7.00;89.90;;;;;;5125140;27;20115;-65
2022/12/25 02:36:56;;;;;;;44.25;15.52;;;7.10;90.00;;;;;;5124251;27;20126;-64
2022/12/25 02:40:08;;;;;;;44.70;16.63;;;7.10;90.00;;;;;;5133756;27;20394;-64
2022/12/25 03:08:33;;;;;;;43.35;16.88;;;7.50;90.20;;;;;;5095598;28;20050;-65
2022/12/25 03:16:49;;;;;;;44.17;16.52;;;7.60;90.40;;;;;;5123967;27;20100;-65
2022/12/25 03:16:50;;;;;;;39.13;15.88;;;7.60;90.20;;;;;;5115890;27;20129;-71
2022/12/25 03:27:40;;;;;;;41.13;17.63;;;7.70;90.20;;;;;;5118182;27;20051;-71
2022/12/25 03:33:04;;;;;;;43.13;15.20;;;7.70;90.20;;;;;;5115462;27;20402;-71
2022/12/25 03:35:42;;;;;;;43.20;16.40;;;7.70;90.20;;;;;;5115139;27;20063;-71
2022/12/25 04:37:20;;;;;;;42.75;16.95;;;8.00;90.30;;;;;;5100831;28;20054;-65
2022/12/25 04:39:46;;;;;;;39.28;16.17;;;8.00;90.30;;;;;;5117578;27;20375;-63
2022/12/25 04:42:12;;;;;;;42.15;16.27;;;8.10;90.30;;;;;;5118695;27;20046;-63
2022/12/25 04:44:37;;;;;;;37.50;17.38;;;8.10;90.30;;;;;;5118597;27;20032;-63
2022/12/25 04:47:03;;;;;;;40.15;18.45;;;8.10;90.30;;;;;;5127377;27;20550;-64
2022/12/25 04:49:28;;;;;;;41.70;17.73;;;8.10;90.30;;;;;;5118768;27;20066;-64
2022/12/25 04:51:54;;;;;;;43.85;18.20;;;8.20;90.40;;;;;;5101826;27;20035;-64
2022/12/25 04:54:20;;;;;;;41.95;17.33;;;8.20;90.30;;;;;;5136385;27;20042;-64
2022/12/25 04:56:46;;;;;;;40.42;17.30;;;8.20;90.30;;;;;;5118472;27;20043;-64
2022/12/25 04:59:12;;;;;;;45.67;17.35;;;8.20;90.30;;;;;;5125738;27;20436;-64
2022/12/25 05:01:38;;;;;;;56.55;20.02;;;8.20;90.30;;;;;;5135492;27;20047;-64
2022/12/25 05:04:04;;;;;;;35.83;17.50;;;8.20;90.30;;;;;;5132569;27;20043;-64
2022/12/25 05:06:30;;;;;;;37.97;17.42;;;8.20;90.30;;;;;;5118498;27;20054;-64
2022/12/25 05:08:56;;;;;;;34.45;16.88;;;8.30;90.40;;;;;;5101134;27;20371;-64
2022/12/25 05:11:22;;;;;;;45.58;19.60;;;8.30;90.40;;;;;;5118291;27;20039;-64
2022/12/25 05:13:47;;;;;;;37.15;18.13;;;8.30;90.40;;;;;;5118865;27;20031;-64
2022/12/25 05:16:16;;;;;;;44.03;18.70;;;8.30;90.40;;;;;;5118383;27;20097;-64
2022/12/25 05:18:43;;;;;;;41.15;19.23;;;8.30;90.40;;;;;;5129645;27;20042;-64
2022/12/25 05:21:11;;;;;;;51.15;21.17;;;8.30;90.40;;;;;;5136189;27;20111;-64
2022/12/25 05:23:37;;;;;;;41.45;20.58;;;8.40;90.40;;;;;;5120465;27;20043;-64
2022/12/25 05:26:06;;;;;;;45.95;21.67;;;8.40;90.40;;;;;;5118075;27;20051;-64
2022/12/25 05:28:35;;;;;;;53.25;21.80;;;8.40;90.40;;;;;;5136399;27;20405;-64
2022/12/25 05:31:01;;;;;;;54.25;23.65;;;8.40;90.40;;;;;;5117900;27;20046;-64
2022/12/25 05:33:26;;;;;;;60.38;24.60;;;8.40;90.40;;;;;;5117668;27;20391;-64
2022/12/25 05:35:52;;;;;;;51.72;24.42;;;8.50;90.50;;;;;;5117440;27;20059;-64
2022/12/25 05:38:18;;;;;;;45.33;22.05;;;8.50;90.50;;;;;;5118064;27;20043;-64
2022/12/25 05:40:43;;;;;;;49.55;23.73;;;8.50;90.50;;;;;;5117963;27;20458;-64
2022/12/25 05:43:09;;;;;;;52.53;22.92;;;8.50;90.50;;;;;;5117570;27;20401;-64
2022/12/25 05:45:35;;;;;;;55.63;25.48;;;8.60;90.50;;;;;;5135577;27;20046;-72
2022/12/25 05:48:00;;;;;;;47.15;22.88;;;8.60;90.50;;;;;;5132929;27;20127;-70
2022/12/25 05:50:26;;;;;;;44.28;21.75;;;8.60;90.50;;;;;;5099357;27;20047;-70
2022/12/25 05:52:52;;;;;;;51.92;24.60;;;8.70;90.60;;;;;;5135664;27;20031;-71
2022/12/25 05:55:18;;;;;;;40.45;22.23;;;8.70;90.60;;;;;;5119252;27;20035;-71
2022/12/25 05:57:43;;;;;;;53.10;23.58;;;8.70;90.60;;;;;;5117704;27;20065;-71
2022/12/25 06:00:10;;;;;;;50.72;22.70;;;8.70;90.60;;;;;;5117110;27;20035;-70
2022/12/25 06:02:36;;;;;;;48.15;22.17;;;8.70;90.60;;;;;;5133258;27;20039;-71
2022/12/25 06:05:03;;;;;;;52.47;22.75;;;8.70;90.60;;;;;;5121719;27;20039;-71
2022/12/25 06:07:28;;;;;;;50.63;23.25;;;8.80;90.60;;;;;;5100256;27;20046;-70
2022/12/25 06:09:54;;;;;;;45.15;21.52;;;8.80;90.60;;;;;;5117120;27;20043;-71
2022/12/25 06:12:20;;;;;;;47.03;22.15;;;8.80;90.60;;;;;;5117277;27;20050;-71
2022/12/25 06:14:45;;;;;;;40.80;20.15;;;8.80;90.60;;;;;;5100064;27;20118;-70
2022/12/25 06:17:11;;;;;;;40.85;20.65;;;8.90;90.80;;;;;;5119738;27;20386;-71
2022/12/25 06:19:37;;;;;;;39.85;20.23;;;8.90;90.60;;;;;;5135617;27;20479;-70
2022/12/25 06:22:02;;;;;;;40.45;20.45;;;8.90;90.60;;;;;;5121357;27;20047;-70
2022/12/25 06:24:28;;;;;;;44.85;20.23;;;8.90;90.60;;;;;;5116754;27;20039;-71
2022/12/25 06:26:54;;;;;;;33.97;18.70;;;8.90;90.60;;;;;;5116818;27;20050;-70
2022/12/25 06:29:19;;;;;;;34.65;17.25;;;8.90;90.60;;;;;;5116683;27;20478;-71
2022/12/25 06:31:45;;;;;;;35.92;18.33;;;9.00;90.80;;;;;;5135117;27;20039;-71
2022/12/25 06:34:15;;;;;;;37.17;17.30;;;9.00;90.60;;;;;;5121564;27;20055;-64
2022/12/25 06:36:41;;;;;;;37.67;18.25;;;9.00;90.60;;;;;;5133816;27;20050;-65
2022/12/25 06:39:06;;;;;;;34.80;18.05;;;9.00;90.60;;;;;;5133714;27;20070;-65
2022/12/25 06:41:32;;;;;;;33.95;17.63;;;9.00;90.60;;;;;;5116277;27;20077;-65
2022/12/25 06:44:00;;;;;;;27.80;16.58;;;9.00;90.50;;;;;;5116084;27;20047;-65
2022/12/25 06:46:28;;;;;;;33.83;17.48;;;9.00;90.50;;;;;;5116603;27;20057;-65
2022/12/25 06:48:54;;;;;;;37.58;17.38;;;9.00;90.50;;;;;;5096241;28;20479;-64
2022/12/25 06:51:23;;;;;;;29.50;16.77;;;9.00;90.50;;;;;;5096036;28;20067;-65
2022/12/25 06:53:50;;;;;;;31.23;16.83;;;9.10;90.50;;;;;;5103508;27;20039;-65
2022/12/25 06:56:19;;;;;;;33.30;17.30;;;9.10;90.50;;;;;;5116160;27;20042;-65
2022/12/25 06:58:48;;;;;;;33.72;16.45;;;9.10;90.50;;;;;;5116427;27;20043;-71
2022/12/25 07:01:23;;;;;;;30.60;15.95;;;9.10;90.50;;;;;;5116416;27;20042;-71
2022/12/25 07:03:51;;;;;;;33.50;16.65;;;9.10;90.50;;;;;;5134202;27;20046;-71
2022/12/25 07:06:17;;;;;;;33.13;16.60;;;9.10;90.50;;;;;;5115806;27;20046;-71
2022/12/25 07:08:43;;;;;;;28.15;15.93;;;9.10;90.50;;;;;;5115846;27;20125;-71
2022/12/25 07:11:09;;;;;;;27.90;15.32;;;9.10;90.40;;;;;;5130634;27;20043;-72
2022/12/25 07:13:34;;;;;;;31.25;16.52;;;9.10;90.40;;;;;;5131506;27;20047;-71
2022/12/25 07:16:02;;;;;;;32.72;16.25;;;9.10;90.40;;;;;;5099070;27;20112;-71
2022/12/25 07:18:28;;;;;;;30.23;16.10;;;9.10;90.40;;;;;;5129053;27;20097;-71
2022/12/25 07:20:54;;;;;;;27.67;15.52;;;9.10;90.40;;;;;;5133062;27;20108;-71
2022/12/25 07:23:21;;;;;;;27.88;14.57;;;9.10;90.40;;;;;;5118620;27;20156;-71
2022/12/25 07:25:58;;;;;;;26.80;15.45;;;9.10;90.40;;;;;;5115754;27;20054;-71
2022/12/25 07:28:24;;;;;;;30.83;14.75;;;9.10;90.40;;;;;;5115797;27;20123;-71
2022/12/25 07:30:50;;;;;;;32.40;15.88;;;9.00;90.30;;;;;;5115759;27;20032;-71
2022/12/25 07:33:16;;;;;;;30.42;14.48;;;9.10;90.30;;;;;;5126470;27;20031;-71
2022/12/25 07:35:42;;;;;;;27.17;14.25;;;9.10;90.30;;;;;;5132492;27;20513;-71
2022/12/25 07:38:07;;;;;;;23.70;13.93;;;9.10;90.30;;;;;;5115559;27;20559;-71
2022/12/25 07:40:33;;;;;;;25.88;13.93;;;9.10;90.30;;;;;;5115413;27;20043;-71
2022/12/25 07:42:59;;;;;;;27.52;14.80;;;9.10;90.30;;;;;;5114985;27;20076;-71
2022/12/25 07:45:25;;;;;;;27.83;13.65;;;9.10;90.30;;;;;;5115154;28;20036;-71
2022/12/25 07:47:50;;;;;;;26.10;13.93;;;9.10;90.30;;;;;;5097890;28;20068;-71
2022/12/25 07:50:16;;;;;;;23.10;13.18;;;9.00;90.30;;;;;;5130099;27;20043;-71
2022/12/25 07:52:42;;;;;;;21.70;12.07;;;9.10;90.30;;;;;;5115398;28;20498;-71
2022/12/25 07:55:09;;;;;;;22.80;12.25;;;9.10;90.30;;;;;;5115382;28;20035;-72
2022/12/25 07:57:36;;;;;;;24.73;12.50;;;9.10;90.30;;;;;;5115711;28;20043;-71
2022/12/25 08:00:06;;;;;;;22.63;12.32;;;9.10;90.30;;;;;;5115343;28;20436;-71
2022/12/25 08:02:31;;;;;;;19.27;12.00;;;9.10;90.30;;;;;;5114923;28;20444;-71
2022/12/25 08:04:57;;;;;;;24.67;12.60;;;9.10;90.30;;;;;;5115159;28;20035;-71
2022/12/25 08:07:23;;;;;;;23.70;12.07;;;9.00;90.20;;;;;;5115318;28;20132;-71
2022/12/25 08:09:49;;;;;;;20.65;12.65;;;9.10;90.30;;;;;;5115210;28;20082;-70
2022/12/25 08:12:15;;;;;;;18.52;11.38;;;9.10;90.30;;;;;;5115352;28;20043;-71
2022/12/25 08:14:40;;;;;;;21.70;10.88;;;9.10;90.30;;;;;;5124616;27;20043;-71
2022/12/25 08:17:06;;;;;;;23.35;11.57;;;9.00;90.20;;;;;;5135085;27;20171;-71
2022/12/25 08:19:32;;;;;;;20.05;11.18;;;9.10;90.30;;;;;;5119596;27;20059;-71
2022/12/25 08:21:58;;;;;;;19.15;11.13;;;9.00;90.20;;;;;;5119341;27;20038;-71
2022/12/25 08:24:24;;;;;;;23.60;10.95;;;9.00;90.20;;;;;;5118951;27;20157;-71
2022/12/25 08:26:49;;;;;;;18.13;10.77;;;9.10;90.20;;;;;;5119184;27;20123;-71
2022/12/25 08:29:15;;;;;;;19.00;11.10;;;9.00;90.20;;;;;;5134451;27;20064;-71
2022/12/25 08:31:42;;;;;;;18.85;11.55;;;9.10;90.20;;;;;;5118884;27;20042;-71
2022/12/25 08:34:09;;;;;;;16.17;9.30;;;9.10;90.20;;;;;;5119177;27;20077;-71
2022/12/25 08:36:35;;;;;;;20.58;10.93;;;9.10;90.30;;;;;;5118971;27;20401;-71
2022/12/25 08:39:01;;;;;;;16.45;10.45;;;9.10;90.30;;;;;;5118972;27;20126;-71
2022/12/25 08:41:27;;;;;;;20.50;10.82;;;9.10;90.20;;;;;;5101832;27;20118;-72
2022/12/25 08:43:53;;;;;;;19.42;10.40;;;9.10;90.20;;;;;;5119000;27;20122;-71
2022/12/25 08:46:19;;;;;;;18.00;10.02;;;9.10;90.20;;;;;;5119233;27;20497;-70
2022/12/25 08:48:47;;;;;;;21.27;10.27;;;9.10;90.20;;;;;;5118796;27;20039;-70
2022/12/25 08:51:15;;;;;;;23.23;10.88;;;9.10;90.20;;;;;;5118497;27;20047;-71
2022/12/25 08:53:42;;;;;;;17.30;9.02;;;9.10;90.20;;;;;;5119064;27;20065;-71
2022/12/25 08:56:08;;;;;;;16.70;9.65;;;9.10;90.20;;;;;;5118767;27;20162;-71
2022/12/25 08:58:34;;;;;;;18.52;10.50;;;9.10;90.20;;;;;;5118252;27;20518;-71
2022/12/25 09:01:00;;;;;;;17.98;9.43;;;9.10;90.20;;;;;;5118410;27;20059;-71
2022/12/25 09:03:26;;;;;;;15.55;8.88;;;9.10;90.20;;;;;;5118298;27;20406;-71
2022/12/25 09:05:53;;;;;;;19.55;9.45;;;9.10;90.20;;;;;;5118541;27;20043;-71
2022/12/25 09:08:20;;;;;;;14.68;8.35;;;9.10;90.20;;;;;;5118374;27;20038;-71
2022/12/25 09:10:47;;;;;;;14.68;9.30;;;9.20;90.20;;;;;;5100372;27;20470;-71
2022/12/25 09:13:13;;;;;;;15.20;8.25;;;9.10;90.10;;;;;;5115008;28;20039;-71
2022/12/25 09:15:39;;;;;;;14.88;9.05;;;9.20;90.20;;;;;;5107422;27;20115;-71
2022/12/25 09:18:05;;;;;;;16.80;9.18;;;9.20;90.20;;;;;;5117321;27;20050;-71
2022/12/25 09:20:31;;;;;;;19.58;9.38;;;9.10;90.10;;;;;;5101224;27;20043;-71
2022/12/25 09:22:56;;;;;;;19.30;9.10;;;9.20;90.10;;;;;;5104704;27;20046;-71
2022/12/25 09:25:22;;;;;;;14.73;9.13;;;9.20;90.10;;;;;;5133233;27;20114;-71
2022/12/25 09:27:48;;;;;;;15.98;8.63;;;9.10;90.10;;;;;;5118292;27;20738;-70
2022/12/25 09:30:14;;;;;;;16.65;9.15;;;9.20;90.10;;;;;;5091354;27;20359;-71
2022/12/25 09:32:39;;;;;;;16.75;9.05;;;9.20;90.10;;;;;;5117613;27;20039;-71
2022/12/25 09:35:09;;;;;;;16.65;10.18;;;9.20;90.10;;;;;;5096956;28;20051;-70
2022/12/25 09:37:34;;;;;;;15.73;9.15;;;9.20;90.10;;;;;;5113003;27;20050;-70
2022/12/25 09:40:00;;;;;;;19.48;8.85;;;9.20;90.00;;;;;;5119741;27;20047;-70
2022/12/25 09:42:31;;;;;;;17.35;9.30;;;9.20;90.00;;;;;;5113767;28;20032;-70
2022/12/25 09:45:02;;;;;;;15.70;8.68;;;9.20;90.10;;;;;;5113947;28;20039;-70
2022/12/25 09:47:32;;;;;;;16.00;8.95;;;9.20;90.10;;;;;;5113516;28;20119;-70
2022/12/25 09:50:13;;;;;;;20.90;10.15;;;9.20;90.10;;;;;;5114248;28;20079;-71
2022/12/25 09:53:15;;;;;;;20.60;8.55;;;9.20;90.10;;;;;;5114206;28;20050;-70
2022/12/25 09:55:50;;;;;;;14.80;8.75;;;9.20;90.10;;;;;;5109160;28;20063;-70
2022/12/25 09:58:16;;;;;;;16.83;8.35;;;9.20;90.10;;;;;;5113790;28;20528;-71
2022/12/25 10:01:00;;;;;;;16.48;8.93;;;9.20;90.00;;;;;;5097254;28;20043;-71
2022/12/25 10:03:50;;;;;;;17.77;9.05;;;9.20;90.00;;;;;;5113337;28;20075;-70
2022/12/25 10:06:35;;;;;;;17.05;9.40;;;9.20;90.00;;;;;;5113711;28;20083;-70
2022/12/25 10:09:20;;;;;;;16.33;8.15;;;9.20;90.00;;;;;;5113918;28;20067;-70
2022/12/25 10:12:05;;;;;;;14.20;7.88;;;9.20;90.00;;;;;;5112538;28;20363;-70
2022/12/25 10:14:54;;;;;;;14.23;8.00;;;9.20;89.90;;;;;;5113994;28;20402;-70
2022/12/25 10:17:38;;;;;;;16.65;8.93;;;9.20;90.00;;;;;;5114026;28;20503;-70
2022/12/25 10:20:25;;;;;;;14.98;8.05;;;9.20;90.00;;;;;;5113429;28;20054;-70
2022/12/25 10:22:56;;;;;;;13.38;8.40;;;9.30;90.00;;;;;;5112900;28;20122;-70
2022/12/25 10:25:23;;;;;;;16.05;8.13;;;9.30;90.00;;;;;;5113164;28;20032;-70
2022/12/25 10:27:57;;;;;;;14.23;8.50;;;9.30;89.90;;;;;;5113544;28;20047;-70
2022/12/25 10:30:25;;;;;;;15.87;8.07;;;9.30;90.00;;;;;;5113462;28;20051;-70
2022/12/25 10:32:53;;;;;;;13.93;8.27;;;9.30;89.80;;;;;;5113525;28;20352;-70
2022/12/25 10:35:22;;;;;;;13.15;8.02;;;9.30;89.80;;;;;;5113312;28;20047;-70
2022/12/25 10:38:00;;;;;;;17.35;9.07;;;9.30;89.80;;;;;;5112867;28;20066;-70
2022/12/25 10:41:04;;;;;;;15.65;8.75;;;9.30;89.90;;;;;;5112767;28;20043;-71
2022/12/25 10:43:54;;;;;;;17.70;8.27;;;9.30;89.80;;;;;;5113263;28;20093;-71
2022/12/25 10:46:22;;;;;;;14.70;7.63;;;9.30;89.70;;;;;;5086203;28;20056;-71
2022/12/25 10:48:59;;;;;;;17.15;8.38;;;9.30;89.70;;;;;;5092578;28;20066;-71
2022/12/25 10:51:31;;;;;;;11.35;8.00;;;9.30;89.70;;;;;;5098754;28;20042;-71
2022/12/25 10:53:57;;;;;;;13.02;7.65;;;9.30;89.70;;;;;;5095419;28;20039;-71
2022/12/25 10:56:23;;;;;;;15.55;7.78;;;9.30;89.70;;;;;;5113045;28;20048;-72
2022/12/25 10:58:49;;;;;;;13.73;7.68;;;9.40;89.80;;;;;;5112664;28;20058;-71
2022/12/25 11:01:14;;;;;;;12.63;7.97;;;9.30;89.70;;;;;;5112731;28;20032;-72
2022/12/25 11:03:45;;;;;;;13.27;8.27;;;9.40;89.70;;;;;;5112645;28;20405;-71
2022/12/25 11:06:29;;;;;;;16.85;7.85;;;9.40;89.80;;;;;;5112413;28;20082;-72
2022/12/25 11:08:58;;;;;;;16.17;8.32;;;9.40;89.80;;;;;;5113611;28;20035;-71
2022/12/25 11:11:25;;;;;;;14.50;7.78;;;9.40;89.60;;;;;;5095179;28;20039;-71
2022/12/25 11:13:57;;;;;;;11.98;7.72;;;9.40;89.60;;;;;;5112597;28;20126;-71
2022/12/25 11:16:34;;;;;;;11.85;7.40;;;9.50;89.70;;;;;;5112702;28;20494;-71
2022/12/25 11:19:01;;;;;;;16.67;7.78;;;9.50;89.80;;;;;;5112665;28;20089;-71
2022/12/25 11:21:31;;;;;;;12.63;6.53;;;9.50;89.70;;;;;;5112914;28;20517;-71
2022/12/25 11:24:00;;;;;;;11.52;7.22;;;9.50;89.80;;;;;;5112331;28;20031;-71
2022/12/25 11:26:27;;;;;;;13.90;7.25;;;9.50;89.70;;;;;;5094808;28;20483;-65
2022/12/25 11:28:54;;;;;;;13.35;7.90;;;9.50;89.70;;;;;;5112281;28;20047;-65
2022/12/25 11:31:28;;;;;;;14.00;7.18;;;9.60;89.80;;;;;;5092065;28;20052;-65
2022/12/25 11:33:56;;;;;;;16.52;7.18;;;9.60;89.80;;;;;;5092522;28;20044;-66
2022/12/25 11:36:44;;;;;;;12.00;7.05;;;9.60;89.70;;;;;;5106560;28;20571;-65
2022/12/25 11:39:24;;;;;;;13.27;6.95;;;9.70;89.90;;;;;;5113651;28;20440;-66
2022/12/25 11:42:13;;;;;;;11.95;6.18;;;9.60;90.00;;;;;;5093011;28;20035;-66
2022/12/25 11:45:01;;;;;;;12.98;6.20;;;9.60;89.70;;;;;;5091718;28;20036;-66
2022/12/25 11:48:05;;;;;;;14.27;7.38;;;9.70;89.70;;;;;;5104337;28;20390;-65
2022/12/25 11:50:36;;;;;;;10.48;6.68;;;9.70;89.70;;;;;;5065981;28;20071;-65
2022/12/25 11:53:05;;;;;;;10.80;5.85;;;9.70;89.70;;;;;;5111714;28;20039;-65
2022/12/25 11:55:31;;;;;;;12.30;6.40;;;9.70;89.60;;;;;;5095312;28;20474;-65
2022/12/25 11:58:00;;;;;;;11.48;5.60;;;9.70;89.50;;;;;;5111894;28;20085;-65
2022/12/25 12:00:28;;;;;;;13.25;6.85;;;9.70;89.50;;;;;;5112034;28;20046;-66
2022/12/25 12:03:10;;;;;;;13.88;6.88;;;9.80;89.60;;;;;;5111822;28;20036;-66
2022/12/25 12:05:42;;;;;;;11.40;5.90;;;9.80;89.60;;;;;;5111829;28;20043;-66
2022/12/25 12:08:09;;;;;;;14.68;6.85;;;9.80;89.50;;;;;;5111724;28;20387;-72
2022/12/25 12:11:15;;;;;;;13.00;6.25;;;9.80;89.50;;;;;;5111828;28;20043;-71
2022/12/25 12:13:52;;;;;;;15.10;5.97;;;9.80;89.50;;;;;;5111702;28;20071;-72
2022/12/25 12:16:18;;;;;;;11.60;5.97;;;9.80;89.60;;;;;;5111624;28;20040;-72
2022/12/25 12:18:44;;;;;;;10.80;6.00;;;9.80;89.40;;;;;;5112341;28;20050;-65
2022/12/25 12:21:16;;;;;;;9.40;5.38;;;9.80;89.40;;;;;;5111476;28;20043;-65
2022/12/25 12:24:16;;;;;;;9.48;5.82;;;9.80;89.50;;;;;;5111672;28;20114;-65
2022/12/25 12:26:43;;;;;;;10.45;5.80;;;9.90;89.50;;;;;;5118703;28;20039;-66
2022/12/25 12:29:24;;;;;;;12.23;5.90;;;9.90;89.50;;;;;;5111031;28;20036;-66
2022/12/25 12:31:51;;;;;;;11.13;6.57;;;9.90;89.60;;;;;;5120290;28;20045;-65
2022/12/25 12:34:28;;;;;;;10.80;6.68;;;9.90;89.50;;;;;;5127882;27;20829;-64
2022/12/25 12:37:11;;;;;;;11.65;6.40;;;9.90;89.50;;;;;;5114588;28;20504;-64
2022/12/25 12:39:39;;;;;;;9.80;6.28;;;9.90;89.50;;;;;;5112246;27;20051;-65
2022/12/25 12:42:18;;;;;;;11.30;6.00;;;9.90;89.50;;;;;;5123366;27;20143;-65
2022/12/25 12:44:46;;;;;;;10.15;5.75;;;9.90;89.50;;;;;;5116562;28;20046;-65
2022/12/25 12:47:45;;;;;;;13.55;6.53;;;9.90;89.50;;;;;;5109281;28;20037;-65
2022/12/25 12:50:31;;;;;;;12.75;6.45;;;10.00;89.50;;;;;;5109460;27;20078;-65
2022/12/25 12:52:58;;;;;;;11.40;6.10;;;10.00;89.50;;;;;;5108846;28;20482;-65
2022/12/25 12:55:32;;;;;;;9.88;6.28;;;9.90;89.40;;;;;;5114627;27;20042;-65
2022/12/25 12:58:00;;;;;;;12.98;6.75;;;10.00;89.50;;;;;;5112586;27;20070;-65
2022/12/25 13:00:33;;;;;;;13.73;6.97;;;9.90;89.40;;;;;;5122229;27;20117;-65
2022/12/25 13:03:25;;;;;;;11.45;7.03;;;10.00;89.40;;;;;;5119853;27;20126;-65
2022/12/25 13:06:01;;;;;;;8.95;6.63;;;10.00;89.30;;;;;;5116137;27;20443;-65
2022/12/25 13:08:50;;;;;;;10.45;6.43;;;10.00;89.30;;;;;;5115536;27;20449;-65
2022/12/25 13:11:20;;;;;;;11.02;7.18;;;10.00;89.30;;;;;;5112331;27;20038;-68
2022/12/25 13:13:48;;;;;;;11.98;7.05;;;10.00;89.30;;;;;;5128266;27;20408;-66
2022/12/25 13:16:30;;;;;;;10.23;6.53;;;10.00;89.20;;;;;;5128971;27;20034;-66
2022/12/25 13:18:57;;;;;;;10.85;7.25;;;10.00;89.20;;;;;;5124909;27;20094;-65
2022/12/25 13:21:28;;;;;;;11.65;6.78;;;10.00;89.10;;;;;;5113826;27;20515;-65
2022/12/25 13:24:16;;;;;;;8.57;6.60;;;10.00;89.10;;;;;;5121223;27;20046;-65
2022/12/25 13:26:42;;;;;;;11.88;7.35;;;10.00;89.10;;;;;;5112252;27;20046;-67
2022/12/25 13:29:29;;;;;;;11.50;8.13;;;10.00;89.00;;;;;;5111982;27;20031;-66
2022/12/25 13:31:56;;;;;;;10.02;7.15;;;10.00;89.00;;;;;;5116427;27;20467;-66
2022/12/25 13:34:49;;;;;;;11.50;7.43;;;9.90;88.80;;;;;;5119171;27;20398;-66
2022/12/25 13:37:21;;;;;;;11.05;7.95;;;10.00;88.80;;;;;;5121668;27;20542;-65
2022/12/25 13:39:56;;;;;;;13.68;8.20;;;9.90;88.80;;;;;;5132752;27;20038;-65
2022/12/25 13:42:25;;;;;;;13.45;8.95;;;9.90;88.80;;;;;;5122093;27;20035;-64
2022/12/25 13:45:01;;;;;;;14.88;8.55;;;9.90;88.80;;;;;;5113652;27;20086;-64
2022/12/25 13:47:38;;;;;;;13.57;9.95;;;10.00;88.80;;;;;;5111773;27;20118;-64
2022/12/25 13:50:15;;;;;;;13.95;9.70;;;9.90;88.80;;;;;;5113166;27;20039;-65
2022/12/25 13:52:41;;;;;;;13.77;9.13;;;9.90;88.80;;;;;;5106241;27;20043;-64
2022/12/25 13:55:17;;;;;;;13.95;9.48;;;9.90;88.80;;;;;;5128416;27;20043;-64
2022/12/25 13:57:50;;;;;;;12.05;9.13;;;9.90;88.80;;;;;;5111588;27;20547;-64
2022/12/25 14:00:31;;;;;;;15.45;9.60;;;9.90;88.80;;;;;;5130145;27;20043;-64
2022/12/25 14:02:57;;;;;;;14.00;9.52;;;9.90;88.80;;;;;;5118942;27;20508;-65
2022/12/25 14:05:23;;;;;;;14.05;9.10;;;9.90;88.80;;;;;;5117114;27;20067;-65
2022/12/25 14:07:53;;;;;;;13.50;9.80;;;9.90;88.80;;;;;;5117005;27;20074;-64
2022/12/25 14:10:21;;;;;;;13.63;9.98;;;9.90;88.80;;;;;;5122432;27;20059;-64
2022/12/25 14:12:50;;;;;;;14.00;10.45;;;9.90;88.70;;;;;;5131464;27;20039;-64
2022/12/25 14:15:20;;;;;;;14.98;9.90;;;9.90;88.70;;;;;;5117083;27;20118;-65
2022/12/25 14:17:46;;;;;;;14.65;10.30;;;9.90;88.70;;;;;;5099886;27;20035;-65
2022/12/25 14:20:53;;;;;;;15.38;10.38;;;9.90;88.70;;;;;;5116863;27;20077;-64
2022/12/25 14:23:19;;;;;;;16.42;11.18;;;9.90;88.60;;;;;;5105743;27;20039;-65
2022/12/25 14:25:46;;;;;;;17.63;11.13;;;9.80;88.70;;;;;;5116668;27;20051;-65
2022/12/25 14:28:30;;;;;;;15.85;11.98;;;9.80;88.70;;;;;;5117112;27;20554;-65
2022/12/25 14:30:57;;;;;;;12.68;10.52;;;9.90;88.80;;;;;;5116372;27;20036;-71
2022/12/25 14:33:24;;;;;;;14.52;11.25;;;9.80;89.10;;;;;;5116780;27;20470;-64
2022/12/25 14:35:51;;;;;;;15.48;11.23;;;9.80;88.70;;;;;;5116224;27;20063;-64
2022/12/25 14:38:23;;;;;;;16.13;12.57;;;9.80;88.70;;;;;;5116908;27;20047;-65